sensor_id;sensor_type;location;lat;lon;timestamp;temperature;humidity
10802;DHT22;5453;50.852;7.102;2023-12-20T00:01:04;8.30;99.90
10802;DHT22;5453;50.852;7.102;2023-12-20T00:03:36;8.30;99.90
10802;DHT22;5453;50.852;7.102;2023-12-20T00:06:09;8.30;99.90
10802;DHT22;5453;50.852;7.102;2023-12-20T00:08:41;8.30;99.90
10802;DHT22;5453;50.852;7.102;2023-12-20T00:11:14;8.20;99.90
10802;DHT22;5453;50.852;7.102;2023-12-20T00:13:48;8.30;99.90
10802;DHT22;5453;50.852;7.102;2023-12-20T00:16:20;8.30;99.90
10802;DHT22;5453;50.852;7.102;2023-12-20T00:18:53;8.30;99.90
10802;DHT22;5453;50.852;7.102;2023-12-20T00:21:25;8.30;99.90
10802;DHT22;5453;50.852;7.102;2023-12-20T00:24:00;8.30;99.90
10802;DHT22;5453;50.852;7.102;2023-12-20T00:26:33;8.30;99.90
10802;DHT22;5453;50.852;7.102;2023-12-20T00:29:07;8.30;99.90
10802;DHT22;5453;50.852;7.102;2023-12-20T00:31:39;8.30;99.90
10802;DHT22;5453;50.852;7.102;2023-12-20T00:34:11;8.30;99.90
10802;DHT22;5453;50.852;7.102;2023-12-20T00:36:44;8.30;99.90
10802;DHT22;5453;50.852;7.102;2023-12-20T00:39:16;8.30;99.90
10802;DHT22;5453;50.852;7.102;2023-12-20T00:41:48;8.30;99.90
10802;DHT22;5453;50.852;7.102;2023-12-20T00:44:22;8.30;99.90
10802;DHT22;5453;50.852;7.102;2023-12-20T00:46:55;8.30;99.90
10802;DHT22;5453;50.852;7.102;2023-12-20T00:49:27;8.30;99.90
10802;DHT22;5453;50.852;7.102;2023-12-20T00:51:59;8.30;99.90
10802;DHT22;5453;50.852;7.102;2023-12-20T00:54:32;8.30;99.90
10802;DHT22;5453;50.852;7.102;2023-12-20T00:57:05;8.30;99.90
10802;DHT22;5453;50.852;7.102;2023-12-20T00:59:38;8.30;99.90
10802;DHT22;5453;50.852;7.102;2023-12-20T01:02:11;8.30;99.90
10802;DHT22;5453;50.852;7.102;2023-12-20T01:04:43;8.30;99.90
10802;DHT22;5453;50.852;7.102;2023-12-20T01:07:16;8.20;99.90
10802;DHT22;5453;50.852;7.102;2023-12-20T01:09:48;8.20;99.90
10802;DHT22;5453;50.852;7.102;2023-12-20T01:12:21;8.20;99.90
10802;DHT22;5453;50.852;7.102;2023-12-20T01:14:54;8.20;99.90
10802;DHT22;5453;50.852;7.102;2023-12-20T01:17:30;8.20;99.90
10802;DHT22;5453;50.852;7.102;2023-12-20T01:20:03;8.20;99.90
10802;DHT22;5453;50.852;7.102;2023-12-20T01:22:36;8.20;99.90
10802;DHT22;5453;50.852;7.102;2023-12-20T01:25:09;8.20;99.90
10802;DHT22;5453;50.852;7.102;2023-12-20T01:27:41;8.20;99.90
10802;DHT22;5453;50.852;7.102;2023-12-20T01:30:15;8.10;99.90
10802;DHT22;5453;50.852;7.102;2023-12-20T01:32:47;8.10;99.90
10802;DHT22;5453;50.852;7.102;2023-12-20T01:35:20;8.10;99.90
10802;DHT22;5453;50.852;7.102;2023-12-20T01:37:52;8.10;99.90
10802;DHT22;5453;50.852;7.102;2023-12-20T01:40:27;8.00;99.90
10802;DHT22;5453;50.852;7.102;2023-12-20T01:43:00;8.00;99.90
10802;DHT22;5453;50.852;7.102;2023-12-20T01:45:34;8.00;99.90
10802;DHT22;5453;50.852;7.102;2023-12-20T01:48:07;7.90;99.90
10802;DHT22;5453;50.852;7.102;2023-12-20T01:50:40;7.90;99.90
10802;DHT22;5453;50.852;7.102;2023-12-20T01:53:14;7.90;99.90
10802;DHT22;5453;50.852;7.102;2023-12-20T01:55:48;7.90;99.90
10802;DHT22;5453;50.852;7.102;2023-12-20T01:58:22;7.90;99.90
10802;DHT22;5453;50.852;7.102;2023-12-20T02:00:57;7.90;99.90
10802;DHT22;5453;50.852;7.102;2023-12-20T02:03:30;7.90;99.90
10802;DHT22;5453;50.852;7.102;2023-12-20T02:06:02;7.80;99.90
10802;DHT22;5453;50.852;7.102;2023-12-20T02:08:38;7.80;99.90
10802;DHT22;5453;50.852;7.102;2023-12-20T02:11:11;7.80;99.90
10802;DHT22;5453;50.852;7.102;2023-12-20T02:13:43;7.70;99.90
10802;DHT22;5453;50.852;7.102;2023-12-20T02:16:17;7.70;99.90
10802;DHT22;5453;50.852;7.102;2023-12-20T02:18:49;7.60;99.90
10802;DHT22;5453;50.852;7.102;2023-12-20T02:21:32;7.60;99.90
10802;DHT22;5453;50.852;7.102;2023-12-20T02:24:05;7.60;99.90
10802;DHT22;5453;50.852;7.102;2023-12-20T02:26:38;7.50;99.90
10802;DHT22;5453;50.852;7.102;2023-12-20T02:29:11;7.40;99.90
10802;DHT22;5453;50.852;7.102;2023-12-20T02:31:43;7.40;99.90
10802;DHT22;5453;50.852;7.102;2023-12-20T02:34:15;7.40;99.90
10802;DHT22;5453;50.852;7.102;2023-12-20T02:36:49;7.30;99.90
10802;DHT22;5453;50.852;7.102;2023-12-20T02:39:22;7.30;99.90
10802;DHT22;5453;50.852;7.102;2023-12-20T02:41:54;7.20;99.90
10802;DHT22;5453;50.852;7.102;2023-12-20T02:44:27;7.20;99.90
10802;DHT22;5453;50.852;7.102;2023-12-20T02:46:59;7.10;99.90
10802;DHT22;5453;50.852;7.102;2023-12-20T02:49:31;7.10;99.90
10802;DHT22;5453;50.852;7.102;2023-12-20T02:52:08;7.00;99.90
10802;DHT22;5453;50.852;7.102;2023-12-20T02:54:41;7.00;99.90
10802;DHT22;5453;50.852;7.102;2023-12-20T02:57:13;6.90;99.90
10802;DHT22;5453;50.852;7.102;2023-12-20T02:59:46;6.90;99.90
10802;DHT22;5453;50.852;7.102;2023-12-20T03:02:18;6.90;99.90
10802;DHT22;5453;50.852;7.102;2023-12-20T03:04:50;6.80;99.90
10802;DHT22;5453;50.852;7.102;2023-12-20T03:07:24;6.80;99.90
10802;DHT22;5453;50.852;7.102;2023-12-20T03:09:57;6.80;99.90
10802;DHT22;5453;50.852;7.102;2023-12-20T03:12:29;6.80;99.90
10802;DHT22;5453;50.852;7.102;2023-12-20T03:15:01;6.80;99.90
10802;DHT22;5453;50.852;7.102;2023-12-20T03:17:34;6.80;99.90
10802;DHT22;5453;50.852;7.102;2023-12-20T03:20:08;6.80;99.90
10802;DHT22;5453;50.852;7.102;2023-12-20T03:22:42;6.80;99.90
10802;DHT22;5453;50.852;7.102;2023-12-20T03:25:14;6.90;99.90
10802;DHT22;5453;50.852;7.102;2023-12-20T03:27:47;6.90;99.90
10802;DHT22;5453;50.852;7.102;2023-12-20T03:30:19;6.90;99.90
10802;DHT22;5453;50.852;7.102;2023-12-20T03:32:52;6.90;99.90
10802;DHT22;5453;50.852;7.102;2023-12-20T03:35:24;7.00;99.90
10802;DHT22;5453;50.852;7.102;2023-12-20T03:37:58;7.00;99.90
10802;DHT22;5453;50.852;7.102;2023-12-20T03:40:31;7.00;99.90
10802;DHT22;5453;50.852;7.102;2023-12-20T03:43:03;7.10;99.90
10802;DHT22;5453;50.852;7.102;2023-12-20T03:45:36;7.00;99.90
10802;DHT22;5453;50.852;7.102;2023-12-20T03:48:08;7.10;99.90
10802;DHT22;5453;50.852;7.102;2023-12-20T03:50:41;7.10;99.90
10802;DHT22;5453;50.852;7.102;2023-12-20T03:53:14;7.10;99.90
10802;DHT22;5453;50.852;7.102;2023-12-20T03:55:47;7.20;99.90
10802;DHT22;5453;50.852;7.102;2023-12-20T03:58:19;7.20;99.90
10802;DHT22;5453;50.852;7.102;2023-12-20T04:00:52;7.20;99.90
10802;DHT22;5453;50.852;7.102;2023-12-20T04:03:24;7.20;99.90
10802;DHT22;5453;50.852;7.102;2023-12-20T04:05:56;7.20;99.90
10802;DHT22;5453;50.852;7.102;2023-12-20T04:08:33;7.20;99.90
10802;DHT22;5453;50.852;7.102;2023-12-20T04:11:06;7.20;99.90
10802;DHT22;5453;50.852;7.102;2023-12-20T04:13:38;7.20;99.90
10802;DHT22;5453;50.852;7.102;2023-12-20T04:16:10;7.20;99.90
10802;DHT22;5453;50.852;7.102;2023-12-20T04:18:43;7.20;99.90
10802;DHT22;5453;50.852;7.102;2023-12-20T04:21:15;7.20;99.90
10802;DHT22;5453;50.852;7.102;2023-12-20T04:23:49;7.20;99.90
10802;DHT22;5453;50.852;7.102;2023-12-20T04:26:21;7.20;99.90
10802;DHT22;5453;50.852;7.102;2023-12-20T04:28:53;7.20;99.90
10802;DHT22;5453;50.852;7.102;2023-12-20T04:31:26;7.20;99.90
10802;DHT22;5453;50.852;7.102;2023-12-20T04:33:58;7.20;99.90
10802;DHT22;5453;50.852;7.102;2023-12-20T04:36:30;7.20;99.90
10802;DHT22;5453;50.852;7.102;2023-12-20T04:39:04;7.20;99.90
10802;DHT22;5453;50.852;7.102;2023-12-20T04:41:37;7.30;99.90
10802;DHT22;5453;50.852;7.102;2023-12-20T04:44:09;7.20;99.90
10802;DHT22;5453;50.852;7.102;2023-12-20T04:46:42;7.30;99.90
10802;DHT22;5453;50.852;7.102;2023-12-20T04:49:15;7.30;99.90
10802;DHT22;5453;50.852;7.102;2023-12-20T04:51:47;7.30;99.90
10802;DHT22;5453;50.852;7.102;2023-12-20T04:54:25;7.30;99.90
10802;DHT22;5453;50.852;7.102;2023-12-20T04:56:57;7.20;99.90
10802;DHT22;5453;50.852;7.102;2023-12-20T04:59:29;7.20;99.90
10802;DHT22;5453;50.852;7.102;2023-12-20T05:02:02;7.20;99.90
10802;DHT22;5453;50.852;7.102;2023-12-20T05:04:34;7.20;99.90
10802;DHT22;5453;50.852;7.102;2023-12-20T05:07:07;7.10;99.90
10802;DHT22;5453;50.852;7.102;2023-12-20T05:09:40;7.10;99.90
10802;DHT22;5453;50.852;7.102;2023-12-20T05:12:13;7.10;99.90
10802;DHT22;5453;50.852;7.102;2023-12-20T05:14:46;7.00;99.90
10802;DHT22;5453;50.852;7.102;2023-12-20T05:17:18;7.00;99.90
10802;DHT22;5453;50.852;7.102;2023-12-20T05:19:52;7.00;99.90
10802;DHT22;5453;50.852;7.102;2023-12-20T05:22:27;6.90;99.90
10802;DHT22;5453;50.852;7.102;2023-12-20T05:25:01;6.90;99.90
10802;DHT22;5453;50.852;7.102;2023-12-20T05:27:35;6.90;99.90
10802;DHT22;5453;50.852;7.102;2023-12-20T05:30:08;6.90;99.90
10802;DHT22;5453;50.852;7.102;2023-12-20T05:32:41;6.90;99.90
10802;DHT22;5453;50.852;7.102;2023-12-20T05:35:13;6.90;99.90
10802;DHT22;5453;50.852;7.102;2023-12-20T05:37:46;6.80;99.90
10802;DHT22;5453;50.852;7.102;2023-12-20T05:40:19;6.80;99.90
10802;DHT22;5453;50.852;7.102;2023-12-20T05:42:52;6.80;99.90
10802;DHT22;5453;50.852;7.102;2023-12-20T05:45:24;6.90;99.90
10802;DHT22;5453;50.852;7.102;2023-12-20T05:47:57;6.90;99.90
10802;DHT22;5453;50.852;7.102;2023-12-20T05:50:29;6.90;99.90
10802;DHT22;5453;50.852;7.102;2023-12-20T05:53:01;6.90;99.90
10802;DHT22;5453;50.852;7.102;2023-12-20T05:55:35;6.90;99.90
10802;DHT22;5453;50.852;7.102;2023-12-20T05:58:08;6.90;99.90
10802;DHT22;5453;50.852;7.102;2023-12-20T06:00:40;6.90;99.90
10802;DHT22;5453;50.852;7.102;2023-12-20T06:03:12;6.90;99.90
10802;DHT22;5453;50.852;7.102;2023-12-20T06:05:45;7.00;99.90
10802;DHT22;5453;50.852;7.102;2023-12-20T06:08:17;7.00;99.90
10802;DHT22;5453;50.852;7.102;2023-12-20T06:10:51;7.00;99.90
10802;DHT22;5453;50.852;7.102;2023-12-20T06:13:23;7.00;99.90
10802;DHT22;5453;50.852;7.102;2023-12-20T06:15:56;7.00;99.90
10802;DHT22;5453;50.852;7.102;2023-12-20T06:18:28;7.00;99.90
10802;DHT22;5453;50.852;7.102;2023-12-20T06:21:00;7.00;99.90
10802;DHT22;5453;50.852;7.102;2023-12-20T06:23:33;7.00;99.90
10802;DHT22;5453;50.852;7.102;2023-12-20T06:26:07;7.00;99.90
10802;DHT22;5453;50.852;7.102;2023-12-20T06:28:39;7.10;99.90
10802;DHT22;5453;50.852;7.102;2023-12-20T06:31:11;7.00;99.90
10802;DHT22;5453;50.852;7.102;2023-12-20T06:33:44;7.10;99.90
10802;DHT22;5453;50.852;7.102;2023-12-20T06:36:16;7.10;99.90
10802;DHT22;5453;50.852;7.102;2023-12-20T06:38:52;7.10;99.90
10802;DHT22;5453;50.852;7.102;2023-12-20T06:41:26;7.10;99.90
10802;DHT22;5453;50.852;7.102;2023-12-20T06:43:58;7.10;99.90
10802;DHT22;5453;50.852;7.102;2023-12-20T06:46:30;7.10;99.90
10802;DHT22;5453;50.852;7.102;2023-12-20T06:49:03;7.10;99.90
10802;DHT22;5453;50.852;7.102;2023-12-20T06:51:35;7.10;99.90
10802;DHT22;5453;50.852;7.102;2023-12-20T06:54:07;7.20;99.90
10802;DHT22;5453;50.852;7.102;2023-12-20T06:56:41;7.20;99.90
10802;DHT22;5453;50.852;7.102;2023-12-20T06:59:14;7.20;99.90
10802;DHT22;5453;50.852;7.102;2023-12-20T07:01:48;7.20;99.90
10802;DHT22;5453;50.852;7.102;2023-12-20T07:04:20;7.20;99.90
10802;DHT22;5453;50.852;7.102;2023-12-20T07:06:53;7.20;99.90
10802;DHT22;5453;50.852;7.102;2023-12-20T07:09:28;7.20;99.90
10802;DHT22;5453;50.852;7.102;2023-12-20T07:12:02;7.30;99.90
10802;DHT22;5453;50.852;7.102;2023-12-20T07:14:35;7.30;99.90
10802;DHT22;5453;50.852;7.102;2023-12-20T07:17:07;7.30;99.90
10802;DHT22;5453;50.852;7.102;2023-12-20T07:19:42;7.30;99.90
10802;DHT22;5453;50.852;7.102;2023-12-20T07:22:14;7.30;99.90
10802;DHT22;5453;50.852;7.102;2023-12-20T07:24:47;7.30;99.90
10802;DHT22;5453;50.852;7.102;2023-12-20T07:27:21;7.30;99.90
10802;DHT22;5453;50.852;7.102;2023-12-20T07:29:54;7.30;99.90
10802;DHT22;5453;50.852;7.102;2023-12-20T07:32:26;7.30;99.90
10802;DHT22;5453;50.852;7.102;2023-12-20T07:34:59;7.30;99.90
10802;DHT22;5453;50.852;7.102;2023-12-20T07:37:31;7.30;99.90
10802;DHT22;5453;50.852;7.102;2023-12-20T07:40:04;7.30;99.90
10802;DHT22;5453;50.852;7.102;2023-12-20T07:42:39;7.30;99.90
10802;DHT22;5453;50.852;7.102;2023-12-20T07:45:11;7.40;99.90
10802;DHT22;5453;50.852;7.102;2023-12-20T07:47:43;7.30;99.90
10802;DHT22;5453;50.852;7.102;2023-12-20T07:50:16;7.30;99.90
10802;DHT22;5453;50.852;7.102;2023-12-20T07:52:51;7.40;99.90
10802;DHT22;5453;50.852;7.102;2023-12-20T07:55:24;7.40;99.90
10802;DHT22;5453;50.852;7.102;2023-12-20T07:57:57;7.40;99.90
10802;DHT22;5453;50.852;7.102;2023-12-20T08:00:31;7.40;99.90
10802;DHT22;5453;50.852;7.102;2023-12-20T08:03:03;7.40;99.90
10802;DHT22;5453;50.852;7.102;2023-12-20T08:05:36;7.40;99.90
10802;DHT22;5453;50.852;7.102;2023-12-20T08:08:10;7.40;99.90
10802;DHT22;5453;50.852;7.102;2023-12-20T08:10:46;7.40;99.90
10802;DHT22;5453;50.852;7.102;2023-12-20T08:13:20;7.40;99.90
10802;DHT22;5453;50.852;7.102;2023-12-20T08:15:56;7.50;99.90
10802;DHT22;5453;50.852;7.102;2023-12-20T08:18:28;7.50;99.90
10802;DHT22;5453;50.852;7.102;2023-12-20T08:21:00;7.50;99.90
10802;DHT22;5453;50.852;7.102;2023-12-20T08:23:33;7.50;99.90
10802;DHT22;5453;50.852;7.102;2023-12-20T08:26:05;7.50;99.90
10802;DHT22;5453;50.852;7.102;2023-12-20T08:28:39;7.50;99.90
10802;DHT22;5453;50.852;7.102;2023-12-20T08:31:14;7.50;99.90
10802;DHT22;5453;50.852;7.102;2023-12-20T08:33:47;7.50;99.90
10802;DHT22;5453;50.852;7.102;2023-12-20T08:36:20;7.50;99.90
10802;DHT22;5453;50.852;7.102;2023-12-20T08:38:54;7.60;99.90
10802;DHT22;5453;50.852;7.102;2023-12-20T08:41:27;7.60;99.90
10802;DHT22;5453;50.852;7.102;2023-12-20T08:44:01;7.90;99.90
10802;DHT22;5453;50.852;7.102;2023-12-20T08:46:34;8.00;99.90
10802;DHT22;5453;50.852;7.102;2023-12-20T08:49:07;8.00;99.90
10802;DHT22;5453;50.852;7.102;2023-12-20T08:51:40;8.00;99.90
10802;DHT22;5453;50.852;7.102;2023-12-20T08:54:12;7.90;99.90
10802;DHT22;5453;50.852;7.102;2023-12-20T08:56:45;7.90;99.90
10802;DHT22;5453;50.852;7.102;2023-12-20T08:59:19;7.80;99.90
10802;DHT22;5453;50.852;7.102;2023-12-20T09:01:51;7.80;99.90
10802;DHT22;5453;50.852;7.102;2023-12-20T09:04:25;7.80;99.90
10802;DHT22;5453;50.852;7.102;2023-12-20T09:07:00;7.80;99.90
10802;DHT22;5453;50.852;7.102;2023-12-20T09:09:33;7.80;99.90
10802;DHT22;5453;50.852;7.102;2023-12-20T09:12:06;7.80;99.90
10802;DHT22;5453;50.852;7.102;2023-12-20T09:14:40;7.70;99.90
10802;DHT22;5453;50.852;7.102;2023-12-20T09:17:12;7.80;99.90
10802;DHT22;5453;50.852;7.102;2023-12-20T09:19:45;7.80;99.90
10802;DHT22;5453;50.852;7.102;2023-12-20T09:22:17;7.80;99.90
10802;DHT22;5453;50.852;7.102;2023-12-20T09:24:53;7.90;99.90
10802;DHT22;5453;50.852;7.102;2023-12-20T09:27:25;7.90;99.90
10802;DHT22;5453;50.852;7.102;2023-12-20T09:30:03;7.80;99.90
10802;DHT22;5453;50.852;7.102;2023-12-20T09:32:37;7.90;99.90
10802;DHT22;5453;50.852;7.102;2023-12-20T09:35:09;7.90;99.90
10802;DHT22;5453;50.852;7.102;2023-12-20T09:37:42;7.90;99.90
10802;DHT22;5453;50.852;7.102;2023-12-20T09:40:18;7.90;99.90
10802;DHT22;5453;50.852;7.102;2023-12-20T09:42:57;7.90;99.90
10802;DHT22;5453;50.852;7.102;2023-12-20T09:45:32;7.90;99.90
10802;DHT22;5453;50.852;7.102;2023-12-20T09:48:06;7.90;99.90
10802;DHT22;5453;50.852;7.102;2023-12-20T09:50:39;7.90;99.90
10802;DHT22;5453;50.852;7.102;2023-12-20T09:53:15;7.90;99.90
10802;DHT22;5453;50.852;7.102;2023-12-20T09:55:47;7.90;99.90
10802;DHT22;5453;50.852;7.102;2023-12-20T09:58:20;7.90;99.90
10802;DHT22;5453;50.852;7.102;2023-12-20T10:00:55;7.90;99.90
10802;DHT22;5453;50.852;7.102;2023-12-20T10:03:28;7.90;99.90
10802;DHT22;5453;50.852;7.102;2023-12-20T10:06:00;7.90;99.90
10802;DHT22;5453;50.852;7.102;2023-12-20T10:08:33;7.90;99.90
10802;DHT22;5453;50.852;7.102;2023-12-20T10:11:05;7.90;99.90
10802;DHT22;5453;50.852;7.102;2023-12-20T10:13:40;7.90;99.90
10802;DHT22;5453;50.852;7.102;2023-12-20T10:16:14;7.90;99.90
10802;DHT22;5453;50.852;7.102;2023-12-20T10:18:46;8.00;99.90
10802;DHT22;5453;50.852;7.102;2023-12-20T10:21:19;8.00;99.90
10802;DHT22;5453;50.852;7.102;2023-12-20T10:23:51;7.90;99.90
10802;DHT22;5453;50.852;7.102;2023-12-20T10:26:25;8.00;99.90
10802;DHT22;5453;50.852;7.102;2023-12-20T10:29:00;8.00;99.90
10802;DHT22;5453;50.852;7.102;2023-12-20T10:31:36;7.90;99.90
10802;DHT22;5453;50.852;7.102;2023-12-20T10:34:09;8.00;99.90
10802;DHT22;5453;50.852;7.102;2023-12-20T10:36:41;8.00;99.90
10802;DHT22;5453;50.852;7.102;2023-12-20T10:39:17;8.00;99.90
10802;DHT22;5453;50.852;7.102;2023-12-20T10:41:51;8.00;99.90
10802;DHT22;5453;50.852;7.102;2023-12-20T10:44:23;8.00;99.90
10802;DHT22;5453;50.852;7.102;2023-12-20T10:46:57;8.00;99.90
10802;DHT22;5453;50.852;7.102;2023-12-20T10:49:31;8.00;99.90
10802;DHT22;5453;50.852;7.102;2023-12-20T10:52:06;8.10;99.90
10802;DHT22;5453;50.852;7.102;2023-12-20T10:54:38;8.10;99.90
10802;DHT22;5453;50.852;7.102;2023-12-20T10:57:12;8.10;99.90
10802;DHT22;5453;50.852;7.102;2023-12-20T10:59:45;8.10;99.90
10802;DHT22;5453;50.852;7.102;2023-12-20T11:02:20;8.10;99.90
10802;DHT22;5453;50.852;7.102;2023-12-20T11:04:59;8.10;99.90
10802;DHT22;5453;50.852;7.102;2023-12-20T11:07:43;8.10;99.90
10802;DHT22;5453;50.852;7.102;2023-12-20T11:10:23;8.10;99.90
10802;DHT22;5453;50.852;7.102;2023-12-20T11:13:06;8.10;99.90
10802;DHT22;5453;50.852;7.102;2023-12-20T11:15:43;8.20;99.90
10802;DHT22;5453;50.852;7.102;2023-12-20T11:18:17;8.20;99.90
10802;DHT22;5453;50.852;7.102;2023-12-20T11:20:49;8.20;99.90
10802;DHT22;5453;50.852;7.102;2023-12-20T11:23:28;8.20;99.90
10802;DHT22;5453;50.852;7.102;2023-12-20T11:26:02;8.40;99.90
10802;DHT22;5453;50.852;7.102;2023-12-20T11:28:35;8.50;99.90
10802;DHT22;5453;50.852;7.102;2023-12-20T11:31:07;8.50;99.90
10802;DHT22;5453;50.852;7.102;2023-12-20T11:33:43;8.50;99.90
10802;DHT22;5453;50.852;7.102;2023-12-20T11:36:19;8.40;99.90
10802;DHT22;5453;50.852;7.102;2023-12-20T11:38:56;8.40;99.90
10802;DHT22;5453;50.852;7.102;2023-12-20T11:41:29;8.30;99.90
10802;DHT22;5453;50.852;7.102;2023-12-20T11:44:01;8.30;99.90
10802;DHT22;5453;50.852;7.102;2023-12-20T11:46:33;8.40;99.90
10802;DHT22;5453;50.852;7.102;2023-12-20T11:49:10;8.30;99.90
10802;DHT22;5453;50.852;7.102;2023-12-20T11:51:44;8.30;99.90
10802;DHT22;5453;50.852;7.102;2023-12-20T11:54:16;8.40;99.90
10802;DHT22;5453;50.852;7.102;2023-12-20T11:56:49;8.40;99.90
10802;DHT22;5453;50.852;7.102;2023-12-20T11:59:21;8.40;99.90
10802;DHT22;5453;50.852;7.102;2023-12-20T12:01:53;8.50;99.90
10802;DHT22;5453;50.852;7.102;2023-12-20T12:04:32;8.40;99.90
10802;DHT22;5453;50.852;7.102;2023-12-20T12:07:04;8.40;99.90
10802;DHT22;5453;50.852;7.102;2023-12-20T12:09:37;8.40;99.90
10802;DHT22;5453;50.852;7.102;2023-12-20T12:12:10;8.40;99.90
10802;DHT22;5453;50.852;7.102;2023-12-20T12:14:42;8.50;99.90
10802;DHT22;5453;50.852;7.102;2023-12-20T12:17:15;8.50;99.90
10802;DHT22;5453;50.852;7.102;2023-12-20T12:19:49;8.40;99.90
10802;DHT22;5453;50.852;7.102;2023-12-20T12:22:21;8.40;99.90
10802;DHT22;5453;50.852;7.102;2023-12-20T12:24:59;8.40;99.90
10802;DHT22;5453;50.852;7.102;2023-12-20T12:27:42;8.40;99.90
10802;DHT22;5453;50.852;7.102;2023-12-20T12:30:16;8.40;99.90
10802;DHT22;5453;50.852;7.102;2023-12-20T12:32:50;8.40;99.90
10802;DHT22;5453;50.852;7.102;2023-12-20T12:35:24;8.40;99.90
10802;DHT22;5453;50.852;7.102;2023-12-20T12:37:59;8.30;99.90
10802;DHT22;5453;50.852;7.102;2023-12-20T12:40:35;8.40;99.90
10802;DHT22;5453;50.852;7.102;2023-12-20T12:43:08;8.30;99.90
10802;DHT22;5453;50.852;7.102;2023-12-20T12:45:40;8.40;99.90
10802;DHT22;5453;50.852;7.102;2023-12-20T12:48:13;8.40;99.90
10802;DHT22;5453;50.852;7.102;2023-12-20T12:50:47;8.40;99.90
10802;DHT22;5453;50.852;7.102;2023-12-20T12:53:25;8.40;99.90
10802;DHT22;5453;50.852;7.102;2023-12-20T12:55:58;8.40;99.90
10802;DHT22;5453;50.852;7.102;2023-12-20T12:58:31;8.40;99.90
10802;DHT22;5453;50.852;7.102;2023-12-20T13:01:03;8.40;99.90
10802;DHT22;5453;50.852;7.102;2023-12-20T13:03:36;8.40;99.90
10802;DHT22;5453;50.852;7.102;2023-12-20T13:06:10;8.40;99.90
10802;DHT22;5453;50.852;7.102;2023-12-20T13:08:43;8.40;99.90
10802;DHT22;5453;50.852;7.102;2023-12-20T13:11:16;8.40;99.90
10802;DHT22;5453;50.852;7.102;2023-12-20T13:13:48;8.40;99.90
10802;DHT22;5453;50.852;7.102;2023-12-20T13:16:21;8.50;99.90
10802;DHT22;5453;50.852;7.102;2023-12-20T13:18:53;8.50;99.90
10802;DHT22;5453;50.852;7.102;2023-12-20T13:21:28;8.40;99.90
10802;DHT22;5453;50.852;7.102;2023-12-20T13:24:01;8.50;99.90
10802;DHT22;5453;50.852;7.102;2023-12-20T13:26:34;8.40;99.90
10802;DHT22;5453;50.852;7.102;2023-12-20T13:29:07;8.40;99.90
10802;DHT22;5453;50.852;7.102;2023-12-20T13:31:39;8.40;99.90
10802;DHT22;5453;50.852;7.102;2023-12-20T13:34:11;8.30;99.90
10802;DHT22;5453;50.852;7.102;2023-12-20T13:36:45;8.30;99.90
10802;DHT22;5453;50.852;7.102;2023-12-20T13:39:21;8.30;99.90
10802;DHT22;5453;50.852;7.102;2023-12-20T13:41:54;8.30;99.90
10802;DHT22;5453;50.852;7.102;2023-12-20T13:44:26;8.20;99.90
10802;DHT22;5453;50.852;7.102;2023-12-20T13:46:59;8.30;99.90
10802;DHT22;5453;50.852;7.102;2023-12-20T13:49:35;8.20;99.90
10802;DHT22;5453;50.852;7.102;2023-12-20T13:52:09;8.20;99.90
10802;DHT22;5453;50.852;7.102;2023-12-20T13:54:41;8.20;99.90
10802;DHT22;5453;50.852;7.102;2023-12-20T13:57:14;8.20;99.90
10802;DHT22;5453;50.852;7.102;2023-12-20T13:59:47;8.30;99.90
10802;DHT22;5453;50.852;7.102;2023-12-20T14:02:19;8.30;99.90
10802;DHT22;5453;50.852;7.102;2023-12-20T14:04:52;8.30;99.90
10802;DHT22;5453;50.852;7.102;2023-12-20T14:07:28;8.30;99.90
10802;DHT22;5453;50.852;7.102;2023-12-20T14:10:01;8.30;99.90
10802;DHT22;5453;50.852;7.102;2023-12-20T14:12:33;8.30;99.90
10802;DHT22;5453;50.852;7.102;2023-12-20T14:15:07;8.30;99.90
10802;DHT22;5453;50.852;7.102;2023-12-20T14:17:44;8.20;99.90
10802;DHT22;5453;50.852;7.102;2023-12-20T14:20:17;8.20;99.90
10802;DHT22;5453;50.852;7.102;2023-12-20T14:22:51;8.20;99.90
10802;DHT22;5453;50.852;7.102;2023-12-20T14:25:23;8.20;99.90
10802;DHT22;5453;50.852;7.102;2023-12-20T14:27:56;8.20;99.90
10802;DHT22;5453;50.852;7.102;2023-12-20T14:30:28;8.20;99.90
10802;DHT22;5453;50.852;7.102;2023-12-20T14:33:01;8.20;99.90
10802;DHT22;5453;50.852;7.102;2023-12-20T14:35:36;8.20;99.90
10802;DHT22;5453;50.852;7.102;2023-12-20T14:38:10;8.20;99.90
10802;DHT22;5453;50.852;7.102;2023-12-20T14:40:44;8.20;99.90
10802;DHT22;5453;50.852;7.102;2023-12-20T14:43:16;8.20;99.90
10802;DHT22;5453;50.852;7.102;2023-12-20T14:45:48;8.20;99.90
10802;DHT22;5453;50.852;7.102;2023-12-20T14:48:21;8.20;99.90
10802;DHT22;5453;50.852;7.102;2023-12-20T14:50:54;8.30;99.90
10802;DHT22;5453;50.852;7.102;2023-12-20T14:53:30;8.30;99.90
10802;DHT22;5453;50.852;7.102;2023-12-20T14:56:03;8.30;99.90
10802;DHT22;5453;50.852;7.102;2023-12-20T14:58:37;8.30;99.90
10802;DHT22;5453;50.852;7.102;2023-12-20T15:01:09;8.30;99.90
10802;DHT22;5453;50.852;7.102;2023-12-20T15:03:45;8.30;99.90
10802;DHT22;5453;50.852;7.102;2023-12-20T15:06:17;8.30;99.90
10802;DHT22;5453;50.852;7.102;2023-12-20T15:08:52;8.30;99.90
10802;DHT22;5453;50.852;7.102;2023-12-20T15:11:24;8.30;99.90
10802;DHT22;5453;50.852;7.102;2023-12-20T15:13:57;8.30;99.90
10802;DHT22;5453;50.852;7.102;2023-12-20T15:16:31;8.30;99.90
10802;DHT22;5453;50.852;7.102;2023-12-20T15:19:03;8.30;99.90
10802;DHT22;5453;50.852;7.102;2023-12-20T15:21:35;8.30;99.90
10802;DHT22;5453;50.852;7.102;2023-12-20T15:24:13;8.30;99.90
10802;DHT22;5453;50.852;7.102;2023-12-20T15:26:46;8.30;99.90
10802;DHT22;5453;50.852;7.102;2023-12-20T15:29:19;8.30;99.90
10802;DHT22;5453;50.852;7.102;2023-12-20T15:31:54;8.40;99.90
10802;DHT22;5453;50.852;7.102;2023-12-20T15:34:27;8.40;99.90
10802;DHT22;5453;50.852;7.102;2023-12-20T15:37:00;8.40;99.90
10802;DHT22;5453;50.852;7.102;2023-12-20T15:39:36;8.40;99.90
10802;DHT22;5453;50.852;7.102;2023-12-20T15:42:09;8.40;99.90
10802;DHT22;5453;50.852;7.102;2023-12-20T15:44:41;8.40;99.90
10802;DHT22;5453;50.852;7.102;2023-12-20T15:47:13;8.40;99.90
10802;DHT22;5453;50.852;7.102;2023-12-20T15:49:49;8.40;99.90
10802;DHT22;5453;50.852;7.102;2023-12-20T15:52:21;8.40;99.90
10802;DHT22;5453;50.852;7.102;2023-12-20T15:54:55;8.40;99.90
10802;DHT22;5453;50.852;7.102;2023-12-20T15:57:28;8.40;99.90
10802;DHT22;5453;50.852;7.102;2023-12-20T16:00:00;8.40;99.90
10802;DHT22;5453;50.852;7.102;2023-12-20T16:02:32;8.40;99.90
10802;DHT22;5453;50.852;7.102;2023-12-20T16:05:05;8.40;99.90
10802;DHT22;5453;50.852;7.102;2023-12-20T16:07:38;8.40;99.90
10802;DHT22;5453;50.852;7.102;2023-12-20T16:10:12;8.40;99.90
10802;DHT22;5453;50.852;7.102;2023-12-20T16:12:44;8.40;99.90
10802;DHT22;5453;50.852;7.102;2023-12-20T16:15:17;8.30;99.90
10802;DHT22;5453;50.852;7.102;2023-12-20T16:17:52;8.40;99.90
10802;DHT22;5453;50.852;7.102;2023-12-20T16:20:25;8.30;99.90
10802;DHT22;5453;50.852;7.102;2023-12-20T16:22:57;8.40;99.90
10802;DHT22;5453;50.852;7.102;2023-12-20T16:25:31;8.40;99.90
10802;DHT22;5453;50.852;7.102;2023-12-20T16:28:08;8.40;99.90
10802;DHT22;5453;50.852;7.102;2023-12-20T16:30:40;8.40;99.90
10802;DHT22;5453;50.852;7.102;2023-12-20T16:33:13;8.40;99.90
10802;DHT22;5453;50.852;7.102;2023-12-20T16:35:45;8.40;99.90
10802;DHT22;5453;50.852;7.102;2023-12-20T16:38:18;8.40;99.90
10802;DHT22;5453;50.852;7.102;2023-12-20T16:40:51;8.40;99.90